createdAt,value
2019-06-10T00:00:24.343Z,4.00
2019-06-10T00:02:57.912Z,4.25
2019-06-10T00:05:31.252Z,3.55
2019-06-10T00:08:06.964Z,4.10
2019-06-10T00:10:41.755Z,3.70
2019-06-10T00:13:13.647Z,4.40
2019-06-10T00:15:51.348Z,5.65
2019-06-10T00:18:38.410Z,4.08
2019-06-10T00:20:57.237Z,3.55
2019-06-10T00:23:31.526Z,3.42
2019-06-10T00:26:05.796Z,3.92
2019-06-10T00:28:40.529Z,3.22
2019-06-10T00:31:11.714Z,3.40
2019-06-10T00:33:44.155Z,3.65
2019-06-10T00:36:17.890Z,4.28
2019-06-10T00:38:51.730Z,3.60
2019-06-10T00:41:24.322Z,3.60
2019-06-10T00:44:00.849Z,3.58
2019-06-10T00:46:32.847Z,4.17
2019-06-10T00:49:07.496Z,3.10
2019-06-10T00:51:41.473Z,3.10
2019-06-10T00:54:15.466Z,3.70
2019-06-10T00:56:46.777Z,3.67
2019-06-10T00:59:22.119Z,2.80
2019-06-10T01:01:53.787Z,2.90
2019-06-10T01:04:27.184Z,4.53
2019-06-10T01:07:00.848Z,3.52
2019-06-10T01:09:34.281Z,4.58
2019-06-10T01:12:06.895Z,3.02
2019-06-10T01:14:41.169Z,3.42
2019-06-10T01:17:15.243Z,3.30
2019-06-10T01:19:50.783Z,3.05
2019-06-10T01:22:21.813Z,3.12
2019-06-10T01:24:55.186Z,3.10
2019-06-10T01:27:27.969Z,3.02
2019-06-10T01:30:01.702Z,4.03
2019-06-10T01:32:34.522Z,3.50
2019-06-10T01:35:11.068Z,3.15
2019-06-10T01:37:42.749Z,3.00
2019-06-10T01:40:16.817Z,3.85
2019-06-10T01:42:50.499Z,3.20
2019-06-10T01:45:21.762Z,3.10
2019-06-10T01:47:53.126Z,3.33
2019-06-10T01:50:25.082Z,3.02
2019-06-10T01:52:57.147Z,3.40
2019-06-10T01:55:28.148Z,3.52
2019-06-10T01:58:00.876Z,3.37
2019-06-10T02:00:33.425Z,3.45
2019-06-10T02:03:04.786Z,4.15
2019-06-10T02:05:36.233Z,3.30
2019-06-10T02:08:08.626Z,2.95
2019-06-10T02:10:41.544Z,2.95
2019-06-10T02:13:15.118Z,3.80
2019-06-10T02:15:46.856Z,3.22
2019-06-10T02:18:21.210Z,3.60
2019-06-10T02:20:51.485Z,4.45
2019-06-10T02:23:23.980Z,3.33
2019-06-10T02:25:55.454Z,3.37
2019-06-10T02:28:31.336Z,3.42
2019-06-10T02:31:03.339Z,3.50
2019-06-10T02:33:36.559Z,4.33
2019-06-10T02:38:39.615Z,7.60
2019-06-10T02:41:18.127Z,7.42
2019-06-10T02:43:46.804Z,3.92
2019-06-10T02:46:23.445Z,4.28
2019-06-10T02:48:54.477Z,3.67
2019-06-10T02:51:30.807Z,4.25
2019-06-10T02:53:58.525Z,6.92
2019-06-10T02:56:35.866Z,4.33
2019-06-10T02:59:04.568Z,9.63
2019-06-10T03:01:37.986Z,8.88
2019-06-10T03:04:13.499Z,4.08
2019-06-10T03:09:16.614Z,4.12
2019-06-10T03:11:53.338Z,3.10
2019-06-10T03:14:25.354Z,3.70
2019-06-10T03:16:57.835Z,3.00
2019-06-10T03:19:42.252Z,4.20
2019-06-10T03:22:02.744Z,3.12
2019-06-10T03:24:34.135Z,3.55
2019-06-10T03:27:05.283Z,3.30
2019-06-10T03:29:37.442Z,3.37
2019-06-10T03:32:08.693Z,2.80
2019-06-10T03:34:43.007Z,3.55
2019-06-10T03:37:13.488Z,3.35
2019-06-10T03:39:44.790Z,3.10
2019-06-10T03:42:16.832Z,3.08
2019-06-10T03:44:49.020Z,3.30
2019-06-10T03:47:23.876Z,2.65
2019-06-10T03:49:56.234Z,2.95
2019-06-10T03:52:27.222Z,3.30
2019-06-10T03:54:59.334Z,4.37
2019-06-10T03:57:30.429Z,3.17
2019-06-10T04:00:02.252Z,2.98
2019-06-10T04:02:33.969Z,3.87
2019-06-10T04:05:05.680Z,3.22
2019-06-10T04:07:37.774Z,3.03
2019-06-10T04:10:09.418Z,3.42
2019-06-10T04:12:43.269Z,3.70
2019-06-10T04:15:13.330Z,2.80
2019-06-10T04:17:44.379Z,3.40
2019-06-10T04:20:17.764Z,3.25
2019-06-10T04:22:52.287Z,3.40
2019-06-10T04:25:28.256Z,2.60
2019-06-10T04:27:58.581Z,3.10
2019-06-10T04:30:32.516Z,3.37
2019-06-10T04:33:09.333Z,3.10
2019-06-10T04:35:43.608Z,3.25
2019-06-10T04:38:16.238Z,3.17
2019-06-10T04:40:52.408Z,3.65
2019-06-10T04:43:25.996Z,2.70
2019-06-10T04:45:57.511Z,3.62
2019-06-10T04:48:29.382Z,2.98
2019-06-10T04:51:02.736Z,3.07
2019-06-10T04:53:34.797Z,3.25
2019-06-10T04:58:38.779Z,2.90
2019-06-10T05:01:12.125Z,3.37
2019-06-10T05:03:45.006Z,3.12
2019-06-10T05:06:16.035Z,3.10
2019-06-10T05:08:47.727Z,2.92
2019-06-10T05:11:19.114Z,5.37
2019-06-10T05:13:53.084Z,2.90
2019-06-10T05:16:26.842Z,3.30
2019-06-10T05:18:57.268Z,2.92
2019-06-10T05:21:31.554Z,3.42
2019-06-10T05:24:03.048Z,2.90
2019-06-10T05:26:35.980Z,2.40
2019-06-10T05:29:07.114Z,2.47
2019-06-10T05:31:38.656Z,2.60
2019-06-10T05:34:13.091Z,2.77
2019-06-10T05:36:44.578Z,6.33
2019-06-10T05:39:15.980Z,3.27
2019-06-10T05:41:50.127Z,2.50
2019-06-10T05:44:23.807Z,3.17
2019-06-10T05:46:53.596Z,5.28
2019-06-10T05:49:26.237Z,2.95
2019-06-10T05:51:58.569Z,3.30
2019-06-10T05:54:33.322Z,2.92
2019-06-10T05:57:04.827Z,3.42
2019-06-10T05:59:36.420Z,3.60
2019-06-10T06:02:07.966Z,3.30
2019-06-10T06:04:42.772Z,4.87
2019-06-10T06:07:14.102Z,3.50
2019-06-10T06:09:46.878Z,3.80
2019-06-10T06:12:18.215Z,3.67
2019-06-10T06:14:49.775Z,3.98
2019-06-10T06:17:23.596Z,3.87
2019-06-10T06:19:56.047Z,4.03
2019-06-10T06:25:03.721Z,4.10
2019-06-10T06:27:36.408Z,3.87
2019-06-10T06:30:13.719Z,3.45
2019-06-10T06:32:43.630Z,4.10
2019-06-10T06:37:46.765Z,4.00
2019-06-10T06:40:18.044Z,4.03
2019-06-10T06:42:49.362Z,4.30
2019-06-10T06:45:22.209Z,4.78
2019-06-10T06:47:54.614Z,3.10
2019-06-10T06:50:28.350Z,3.10
2019-06-10T06:53:20.037Z,3.98
2019-06-10T06:55:34.673Z,4.20
2019-06-10T06:58:06.948Z,3.52
2019-06-10T07:03:09.871Z,4.47
2019-06-10T07:05:43.378Z,3.77
2019-06-10T07:08:13.997Z,3.87
2019-06-10T07:10:46.900Z,6.05
2019-06-10T07:13:18.409Z,4.28
2019-06-10T07:15:53.280Z,3.60
2019-06-10T07:18:23.980Z,4.05
2019-06-10T07:20:55.233Z,3.60
2019-06-10T07:23:27.818Z,3.80
2019-06-10T07:26:02.103Z,3.95
2019-06-10T07:28:35.240Z,3.60
2019-06-10T07:31:19.916Z,3.62
2019-06-10T07:33:45.153Z,3.40
2019-06-10T07:36:14.979Z,3.30
2019-06-10T07:41:18.816Z,3.85
2019-06-10T07:43:52.748Z,4.10
2019-06-10T07:46:24.290Z,3.77
2019-06-10T07:48:56.598Z,3.87
2019-06-10T07:51:29.822Z,4.42
2019-06-10T07:54:03.253Z,4.17
2019-06-10T07:56:40.528Z,4.85
2019-06-10T07:59:08.392Z,3.67
2019-06-10T08:01:48.415Z,3.35
2019-06-10T08:04:18.789Z,3.00
2019-06-10T08:06:53.021Z,3.72
2019-06-10T08:09:24.418Z,3.55
2019-06-10T08:11:55.868Z,2.50
2019-06-10T08:14:28.376Z,3.10
2019-06-10T08:24:37.861Z,8.25
2019-06-10T08:27:09.127Z,4.15
2019-06-10T08:29:41.607Z,2.90
2019-06-10T08:34:47.742Z,3.83
2019-06-10T08:37:18.615Z,3.65
2019-06-10T08:39:50.038Z,3.25
2019-06-10T08:42:23.268Z,2.87
2019-06-10T08:44:59.101Z,3.12
2019-06-10T08:47:29.042Z,2.83
2019-06-10T08:50:02.673Z,3.73
2019-06-10T08:52:51.806Z,3.12
2019-06-10T08:55:09.352Z,2.77
2019-06-10T08:57:43.691Z,2.60
2019-06-10T09:00:18.627Z,4.83
2019-06-10T09:02:51.421Z,3.27
2019-06-10T09:05:23.761Z,3.30
2019-06-10T09:07:55.011Z,3.08
2019-06-10T09:10:26.289Z,3.50
2019-06-10T09:13:02.618Z,2.83
2019-06-10T09:15:34.753Z,3.12
2019-06-10T09:18:07.939Z,3.15
2019-06-10T09:20:41.461Z,3.05
2019-06-10T09:23:21.864Z,4.42
2019-06-10T09:25:50.467Z,2.95
2019-06-10T09:28:19.185Z,3.22
2019-06-10T09:30:54.032Z,3.72
2019-06-10T09:33:23.212Z,3.00
2019-06-10T09:35:55.042Z,3.50
2019-06-10T09:38:27.848Z,3.58
2019-06-10T09:41:02.919Z,2.80
2019-06-10T09:46:03.759Z,4.80
2019-06-10T09:48:36.268Z,3.47
2019-06-10T09:53:42.869Z,2.77
2019-06-10T09:58:47.513Z,2.70
2019-06-10T10:01:16.492Z,3.05
2019-06-10T10:03:53.452Z,3.80
2019-06-10T10:08:57.474Z,2.87
2019-06-10T10:11:28.194Z,2.87
2019-06-10T10:16:27.136Z,2.95
2019-06-10T10:19:00.559Z,3.25
2019-06-10T10:21:33.126Z,2.92
2019-06-10T10:26:37.827Z,2.92
2019-06-10T10:29:09.276Z,2.90
2019-06-10T10:31:45.037Z,3.00
2019-06-10T10:34:14.647Z,2.55
2019-06-10T10:36:48.349Z,2.75
2019-06-10T10:39:22.054Z,2.33
2019-06-10T10:41:56.816Z,3.50
2019-06-10T10:44:27.555Z,3.10
2019-06-10T10:46:58.789Z,2.83
2019-06-10T10:49:32.449Z,2.62
2019-06-10T10:52:03.927Z,2.50
2019-06-10T10:54:36.885Z,2.22
2019-06-10T10:57:08.971Z,3.70
2019-06-10T10:59:40.191Z,4.03
2019-06-10T11:02:12.683Z,4.65
2019-06-10T11:07:22.350Z,7.70
2019-06-10T11:09:56.725Z,9.78
2019-06-10T11:12:28.049Z,8.70
2019-06-10T11:15:01.985Z,5.33
2019-06-10T11:20:07.589Z,4.08
2019-06-10T11:22:38.673Z,3.72
2019-06-10T11:25:12.441Z,3.77
2019-06-10T11:27:43.892Z,4.25
2019-06-10T11:32:46.110Z,2.67
2019-06-10T11:35:18.588Z,1.85
2019-06-10T11:37:54.058Z,1.87
2019-06-10T11:40:26.193Z,2.30
2019-06-10T11:42:59.830Z,2.08
2019-06-10T11:45:32.882Z,2.50
2019-06-10T11:48:03.260Z,1.90
2019-06-10T11:50:34.378Z,1.47
2019-06-10T11:53:06.429Z,1.95
2019-06-10T11:55:38.859Z,3.12
2019-06-10T11:58:10.032Z,2.50
2019-06-10T12:00:42.650Z,1.80
2019-06-10T12:03:14.982Z,3.65
2019-06-10T12:05:48.983Z,2.90
2019-06-10T12:08:23.395Z,2.98
2019-06-10T12:10:58.292Z,1.90
2019-06-10T12:13:25.975Z,1.87
2019-06-10T12:18:29.418Z,2.10
2019-06-10T12:21:03.572Z,1.87
2019-06-10T12:23:33.862Z,1.72
2019-06-10T12:26:05.427Z,1.98
2019-06-10T12:28:36.422Z,1.70
2019-06-10T12:31:07.628Z,1.72
2019-06-10T12:33:38.580Z,1.72
2019-06-10T12:36:09.688Z,1.90
2019-06-10T12:38:43.458Z,1.60
2019-06-10T12:41:14.114Z,1.55
2019-06-10T12:43:45.340Z,1.92
2019-06-10T12:46:16.414Z,1.62
2019-06-10T12:48:47.576Z,1.60
2019-06-10T12:51:22.712Z,1.80
2019-06-10T12:53:55.242Z,1.30
2019-06-10T12:56:26.511Z,1.95
2019-06-10T12:58:59.674Z,2.45
2019-06-10T13:01:32.985Z,2.15
2019-06-10T13:04:07.367Z,2.00
2019-06-10T13:06:36.649Z,1.82
2019-06-10T13:09:12.770Z,1.63
2019-06-10T13:11:43.964Z,2.05
2019-06-10T13:14:18.262Z,2.17
2019-06-10T13:16:52.637Z,1.95
2019-06-10T13:19:23.641Z,2.10
2019-06-10T13:21:55.360Z,1.80
2019-06-10T13:24:26.577Z,1.90
2019-06-10T13:26:58.714Z,1.80
2019-06-10T13:29:29.701Z,1.60
2019-06-10T13:32:04.906Z,1.50
2019-06-10T13:34:36.230Z,1.50
2019-06-10T13:37:08.634Z,1.27
2019-06-10T13:39:42.910Z,1.42
2019-06-10T13:42:14.551Z,1.27
2019-06-10T13:44:45.739Z,1.80
2019-06-10T13:47:17.820Z,1.57
2019-06-10T13:49:50.030Z,1.60
2019-06-10T13:52:23.146Z,1.47
2019-06-10T13:54:54.483Z,1.40
2019-06-10T13:57:26.989Z,1.15
2019-06-10T13:59:59.269Z,0.95
2019-06-10T14:02:32.331Z,1.25
2019-06-10T14:05:08.299Z,1.20
2019-06-10T14:07:36.669Z,1.20
2019-06-10T14:10:16.682Z,1.20
2019-06-10T14:12:43.275Z,1.22
2019-06-10T14:15:16.925Z,1.10
2019-06-10T14:17:47.525Z,1.10
2019-06-10T14:20:19.625Z,1.25
2019-06-10T14:22:52.835Z,3.55
2019-06-10T14:25:23.843Z,5.45
2019-06-10T14:27:56.237Z,7.85
2019-06-10T14:30:28.202Z,5.03
2019-06-10T14:33:02.348Z,2.80
2019-06-10T14:35:33.142Z,2.30
2019-06-10T14:38:06.388Z,1.70
2019-06-10T14:40:37.513Z,1.45
2019-06-10T14:43:08.829Z,1.50
2019-06-10T14:45:42.338Z,1.30
2019-06-10T14:48:15.721Z,1.65
2019-06-10T14:50:47.097Z,1.50
2019-06-10T14:53:19.157Z,1.30
2019-06-10T14:55:52.875Z,1.92
2019-06-10T14:58:23.478Z,1.50
2019-06-10T15:00:54.770Z,1.40
2019-06-10T15:03:26.677Z,1.82
2019-06-10T15:05:57.779Z,1.60
2019-06-10T15:08:29.205Z,1.62
2019-06-10T15:11:01.122Z,1.52
2019-06-10T15:13:52.846Z,1.62
2019-06-10T15:16:24.008Z,1.50
2019-06-10T15:19:10.921Z,1.40
2019-06-10T15:21:28.410Z,1.50
2019-06-10T15:23:59.549Z,1.30
2019-06-10T15:26:32.659Z,1.50
2019-06-10T15:29:04.903Z,1.47
2019-06-10T15:31:36.051Z,1.62
2019-06-10T15:34:08.579Z,1.45
2019-06-10T15:36:39.947Z,1.50
2019-06-10T15:39:16.379Z,1.50
2019-06-10T15:41:46.337Z,1.40
2019-06-10T15:44:35.410Z,1.70
2019-06-10T15:46:52.538Z,1.60
2019-06-10T15:49:26.087Z,1.82
2019-06-10T15:51:57.256Z,1.72
2019-06-10T15:54:28.621Z,1.87
2019-06-10T15:56:59.817Z,1.87
2019-06-10T15:59:30.838Z,1.60
2019-06-10T16:02:02.616Z,1.92
2019-06-10T16:04:35.277Z,1.80
2019-06-10T16:07:07.676Z,1.60
2019-06-10T16:09:38.756Z,1.80
2019-06-10T16:12:09.870Z,1.32
2019-06-10T16:14:42.517Z,1.60
2019-06-10T16:19:45.282Z,1.92
2019-06-10T16:22:17.209Z,2.30
2019-06-10T16:24:48.684Z,1.80
2019-06-10T16:27:20.488Z,1.90
2019-06-10T16:29:52.977Z,2.02
2019-06-10T16:32:26.427Z,2.00
2019-06-10T16:34:58.748Z,1.70
2019-06-10T16:37:29.740Z,2.30
2019-06-10T16:40:03.170Z,2.25
2019-06-10T16:42:34.496Z,2.70
2019-06-10T16:45:07.501Z,2.10
2019-06-10T16:47:39.547Z,2.20
2019-06-10T16:50:12.657Z,2.37
2019-06-10T16:52:44.534Z,2.15
2019-06-10T16:55:17.507Z,2.10
2019-06-10T16:57:58.756Z,2.60
2019-06-10T17:00:23.123Z,2.50
2019-06-10T17:02:54.370Z,2.72
2019-06-10T17:05:27.525Z,2.30
2019-06-10T17:07:57.984Z,2.50
2019-06-10T17:10:34.334Z,2.75
2019-06-10T17:13:06.295Z,2.58
2019-06-10T17:15:37.453Z,2.60
2019-06-10T17:18:09.450Z,2.85
2019-06-10T17:20:42.790Z,2.83
2019-06-10T17:23:16.367Z,2.35
2019-06-10T17:25:48.545Z,2.40
2019-06-10T17:28:20.781Z,2.50
2019-06-10T17:30:53.005Z,2.47
2019-06-10T17:33:26.151Z,2.72
2019-06-10T17:35:58.782Z,2.40
2019-06-10T17:38:31.216Z,2.52
2019-06-10T17:41:02.980Z,2.58
2019-06-10T17:43:35.359Z,2.53
2019-06-10T17:46:07.457Z,2.40
2019-06-10T17:48:39.776Z,3.00
2019-06-10T17:51:11.716Z,2.90
2019-06-10T17:53:44.309Z,2.53
2019-06-10T17:56:15.322Z,3.17
2019-06-10T17:58:54.306Z,2.67
2019-06-10T18:01:22.539Z,2.58
2019-06-10T18:03:53.147Z,2.77
2019-06-10T18:06:24.535Z,2.27
2019-06-10T18:08:58.921Z,2.67
2019-06-10T18:11:32.588Z,3.00
2019-06-10T18:14:03.307Z,2.40
2019-06-10T18:16:36.616Z,2.60
2019-06-10T18:19:08.041Z,3.00
2019-06-10T18:21:39.858Z,2.52
2019-06-10T18:24:12.717Z,3.22
2019-06-10T18:26:44.998Z,3.30
2019-06-10T18:29:17.352Z,3.35
2019-06-10T18:31:48.633Z,2.70
2019-06-10T18:34:19.477Z,2.75
2019-06-10T18:36:52.134Z,4.00
2019-06-10T18:41:55.105Z,3.37
2019-06-10T18:44:28.161Z,2.83
2019-06-10T18:47:02.761Z,3.02
2019-06-10T18:49:36.257Z,3.20
2019-06-10T18:52:08.410Z,3.20
2019-06-10T18:54:40.334Z,3.35
2019-06-10T18:57:12.286Z,3.20
2019-06-10T18:59:44.120Z,3.27
2019-06-10T19:02:16.003Z,3.72
2019-06-10T19:04:47.216Z,2.85
2019-06-10T19:07:19.273Z,3.47
2019-06-10T19:09:52.924Z,3.12
2019-06-10T19:12:24.728Z,3.50
2019-06-10T19:14:56.888Z,3.42
2019-06-10T19:17:30.378Z,3.22
2019-06-10T19:20:03.916Z,3.77
2019-06-10T19:22:35.643Z,4.90
2019-06-10T19:25:09.355Z,4.15
2019-06-10T19:27:44.291Z,4.15
2019-06-10T19:30:18.247Z,4.22
2019-06-10T19:32:49.320Z,3.60
2019-06-10T19:35:22.378Z,3.87
2019-06-10T19:37:54.487Z,3.83
2019-06-10T19:40:25.600Z,3.45
2019-06-10T19:42:58.062Z,4.28
2019-06-10T19:45:32.172Z,4.20
2019-06-10T19:48:03.617Z,4.42
2019-06-10T19:50:36.030Z,4.87
2019-06-10T19:53:12.742Z,3.98
2019-06-10T19:55:44.468Z,3.77
2019-06-10T19:58:17.051Z,4.55
2019-06-10T20:00:53.613Z,4.90
2019-06-10T20:03:22.374Z,5.05
2019-06-10T20:05:54.677Z,4.08
2019-06-10T20:08:26.698Z,4.53
2019-06-10T20:11:03.262Z,4.53
2019-06-10T20:13:34.406Z,5.05
2019-06-10T20:16:05.514Z,5.08
2019-06-10T20:18:37.799Z,5.35
2019-06-10T20:21:08.993Z,5.00
2019-06-10T20:23:42.729Z,4.50
2019-06-10T20:26:12.374Z,4.85
2019-06-10T20:28:46.698Z,4.80
2019-06-10T20:31:18.383Z,5.17
2019-06-10T20:33:52.342Z,5.35
2019-06-10T20:36:27.026Z,5.40
2019-06-10T20:38:58.273Z,5.35
2019-06-10T20:41:29.667Z,5.17
2019-06-10T20:44:03.767Z,5.37
2019-06-10T20:46:35.631Z,5.80
2019-06-10T20:49:08.030Z,6.13
2019-06-10T20:51:56.989Z,6.08
2019-06-10T20:54:14.912Z,5.67
2019-06-10T20:56:49.156Z,6.28
2019-06-10T20:59:22.526Z,6.28
2019-06-10T21:01:53.651Z,5.90
2019-06-10T21:04:25.700Z,5.80
2019-06-10T21:06:57.638Z,7.08
2019-06-10T21:09:28.874Z,6.10
2019-06-10T21:12:02.115Z,6.37
2019-06-10T21:14:36.077Z,6.70
2019-06-10T21:17:12.088Z,6.50
2019-06-10T21:19:44.917Z,6.75
2019-06-10T21:22:16.259Z,6.97
2019-06-10T21:24:50.738Z,6.30
2019-06-10T21:27:24.921Z,6.80
2019-06-10T21:29:57.073Z,7.67
2019-06-10T21:32:29.289Z,7.83
2019-06-10T21:35:03.466Z,8.25
2019-06-10T21:37:36.139Z,7.53
2019-06-10T21:42:39.462Z,7.67
2019-06-10T21:45:12.482Z,7.50
2019-06-10T21:47:45.935Z,6.83
2019-06-10T21:50:18.727Z,7.03
2019-06-10T21:52:51.109Z,6.93
2019-06-10T21:55:23.342Z,7.17
2019-06-10T21:57:55.391Z,6.63
2019-06-10T22:00:30.101Z,6.55
2019-06-10T22:03:02.787Z,6.50
2019-06-10T22:05:34.196Z,5.72
2019-06-10T22:08:06.847Z,7.22
2019-06-10T22:10:37.891Z,7.83
2019-06-10T22:13:12.130Z,5.75
2019-06-10T22:15:44.267Z,5.80
2019-06-10T22:18:16.370Z,6.28
2019-06-10T22:20:48.801Z,6.70
2019-06-10T22:23:23.047Z,6.70
2019-06-10T22:25:55.894Z,6.70
2019-06-10T22:28:27.449Z,6.95
2019-06-10T22:31:15.163Z,5.83
2019-06-10T22:33:34.341Z,6.10
2019-06-10T22:36:06.788Z,7.22
2019-06-10T22:38:38.901Z,6.55
2019-06-10T22:41:12.318Z,6.55
2019-06-10T22:43:44.841Z,7.30
2019-06-10T22:46:16.163Z,7.25
2019-06-10T22:48:48.958Z,6.10
2019-06-10T22:53:54.842Z,6.75
2019-06-10T22:56:25.274Z,6.30
2019-06-10T22:58:57.477Z,7.30
2019-06-10T23:01:37.427Z,7.47
2019-06-10T23:04:04.255Z,6.87
2019-06-10T23:06:36.350Z,7.92
2019-06-10T23:09:09.686Z,7.05
2019-06-10T23:11:42.431Z,6.92
2019-06-10T23:14:13.874Z,7.55
2019-06-10T23:16:44.853Z,7.55
2019-06-10T23:19:15.897Z,6.87
2019-06-10T23:21:49.175Z,7.12
2019-06-10T23:24:23.265Z,6.75
2019-06-10T23:26:55.837Z,6.58
2019-06-10T23:29:27.124Z,5.90
2019-06-10T23:32:03.690Z,7.08
2019-06-10T23:34:33.048Z,5.95
2019-06-10T23:37:04.343Z,5.97
2019-06-10T23:39:36.224Z,5.90
2019-06-10T23:42:08.237Z,6.60
2019-06-10T23:44:40.359Z,6.63
2019-06-10T23:47:12.743Z,6.30
2019-06-10T23:49:44.444Z,6.05
2019-06-10T23:52:15.723Z,6.08
2019-06-10T23:54:49.714Z,6.70
2019-06-10T23:57:22.328Z,6.45
2019-06-10T23:59:54.065Z,6.58
